createdAt,value
2023-04-18T00:00:44.124Z,5.59
2023-04-18T00:03:16.480Z,5.53
2023-04-18T00:05:48.358Z,5.51
2023-04-18T00:08:19.056Z,5.47
2023-04-18T00:10:47.258Z,5.46
2023-04-18T00:13:18.628Z,5.43
2023-04-18T00:15:47.064Z,5.41
2023-04-18T00:18:17.414Z,5.41
2023-04-18T00:20:46.310Z,5.42
2023-04-18T00:23:16.713Z,5.45
2023-04-18T00:25:46.568Z,5.45
2023-04-18T00:28:16.320Z,5.49
2023-04-18T00:30:44.869Z,5.52
2023-04-18T00:33:13.373Z,5.53
2023-04-18T00:35:42.132Z,5.54
2023-04-18T00:38:10.434Z,5.54
2023-04-18T00:40:38.934Z,5.57
2023-04-18T00:43:09.521Z,5.59
2023-04-18T00:45:40.036Z,5.51
2023-04-18T00:48:09.035Z,5.55
2023-04-18T00:50:39.095Z,5.55
2023-04-18T00:53:10.695Z,5.55
2023-04-18T00:55:41.050Z,5.58
2023-04-18T00:58:10.629Z,5.57
2023-04-18T01:00:41.271Z,5.58
2023-04-18T01:03:11.007Z,5.65
2023-04-18T01:05:40.188Z,5.66
2023-04-18T01:08:08.515Z,5.70
2023-04-18T01:10:37.549Z,5.71
2023-04-18T01:13:14.158Z,5.73
2023-04-18T01:15:45.748Z,5.70
2023-04-18T01:18:17.342Z,5.71
2023-04-18T01:20:50.185Z,5.70
2023-04-18T01:23:20.281Z,5.72
2023-04-18T01:25:50.723Z,5.69
2023-04-18T01:28:22.134Z,5.68
2023-04-18T01:30:50.864Z,5.64
2023-04-18T01:33:19.646Z,5.66
2023-04-18T01:35:51.165Z,5.63
2023-04-18T01:38:20.068Z,5.60
2023-04-18T01:40:51.378Z,5.59
2023-04-18T01:43:19.778Z,5.56
2023-04-18T01:45:48.411Z,5.52
2023-04-18T01:48:17.497Z,5.55
2023-04-18T01:50:48.584Z,5.51
2023-04-18T01:53:18.459Z,5.40
2023-04-18T01:55:53.151Z,5.42
2023-04-18T01:58:23.914Z,5.38
2023-04-18T02:00:53.821Z,5.32
2023-04-18T02:03:22.552Z,5.27
2023-04-18T02:05:50.925Z,5.22
2023-04-18T02:08:19.486Z,5.16
2023-04-18T02:10:48.139Z,5.13
2023-04-18T02:13:17.913Z,5.06
2023-04-18T02:15:47.386Z,4.97
2023-04-18T02:18:15.973Z,4.89
2023-04-18T02:20:44.399Z,4.85
2023-04-18T02:23:13.051Z,4.81
2023-04-18T02:25:41.502Z,4.80
2023-04-18T02:28:09.969Z,4.75
2023-04-18T02:30:40.038Z,4.75
2023-04-18T02:33:08.372Z,4.75
2023-04-18T02:35:36.861Z,4.75
2023-04-18T02:38:05.415Z,4.73
2023-04-18T02:40:33.811Z,4.76
2023-04-18T02:43:02.944Z,4.73
2023-04-18T02:45:32.996Z,4.74
2023-04-18T02:48:05.228Z,4.81
2023-04-18T02:50:35.681Z,4.76
2023-04-18T02:53:04.677Z,4.79
2023-04-18T02:55:33.900Z,4.77
2023-04-18T02:58:02.671Z,4.78
2023-04-18T03:00:32.324Z,4.69
2023-04-18T03:03:00.728Z,4.75
2023-04-18T03:05:33.159Z,4.72
2023-04-18T03:08:02.145Z,4.68
2023-04-18T03:10:35.676Z,4.66
2023-04-18T03:13:05.609Z,4.66
2023-04-18T03:15:35.798Z,4.70
2023-04-18T03:18:04.549Z,4.68
2023-04-18T03:20:35.065Z,4.70
2023-04-18T03:23:06.637Z,4.68
2023-04-18T03:25:35.814Z,4.68
2023-04-18T03:28:05.018Z,4.71
2023-04-18T03:30:33.649Z,4.72
2023-04-18T03:33:03.370Z,4.72
2023-04-18T03:35:32.131Z,4.73
2023-04-18T03:38:03.381Z,4.72
2023-04-18T03:40:32.157Z,4.71
2023-04-18T03:43:01.102Z,4.73
2023-04-18T03:45:33.306Z,4.76
2023-04-18T03:48:02.694Z,4.70
2023-04-18T03:50:34.891Z,4.67
2023-04-18T03:53:05.259Z,4.68
2023-04-18T03:55:34.695Z,4.66
2023-04-18T03:58:03.647Z,4.62
2023-04-18T04:00:38.625Z,4.59
2023-04-18T04:03:07.204Z,4.65
2023-04-18T04:05:36.026Z,4.65
2023-04-18T04:08:06.656Z,4.66
2023-04-18T04:10:35.073Z,4.67
2023-04-18T04:13:03.592Z,4.68
2023-04-18T04:15:32.455Z,4.69
2023-04-18T04:18:00.790Z,4.73
2023-04-18T04:20:29.488Z,4.76
2023-04-18T04:22:59.060Z,4.76
2023-04-18T04:25:30.938Z,4.76
2023-04-18T04:28:01.662Z,4.84
2023-04-18T04:30:31.376Z,4.84
2023-04-18T04:32:59.933Z,4.90
2023-04-18T04:35:36.841Z,4.89
2023-04-18T04:38:05.904Z,4.98
2023-04-18T04:40:37.023Z,5.03
2023-04-18T04:43:05.633Z,5.06
2023-04-18T04:45:34.710Z,5.07
2023-04-18T04:48:03.593Z,5.02
2023-04-18T04:50:36.941Z,5.00
2023-04-18T04:53:06.580Z,5.06
2023-04-18T04:55:37.252Z,5.04
2023-04-18T04:58:05.584Z,5.08
2023-04-18T05:00:35.281Z,5.13
2023-04-18T05:03:04.539Z,5.20
2023-04-18T05:05:33.115Z,5.25
2023-04-18T05:08:02.070Z,5.28
2023-04-18T05:10:30.796Z,5.34
2023-04-18T05:13:01.680Z,5.40
2023-04-18T05:15:30.138Z,5.46
2023-04-18T05:18:02.219Z,5.46
2023-04-18T05:20:31.670Z,5.57
2023-04-18T05:23:00.147Z,5.64
2023-04-18T05:25:30.381Z,5.76
2023-04-18T05:28:05.555Z,5.82
2023-04-18T05:30:33.317Z,5.89
2023-04-18T05:33:01.143Z,5.91
2023-04-18T05:35:28.988Z,5.97
2023-04-18T05:37:56.817Z,6.06
2023-04-18T05:40:24.656Z,6.27
2023-04-18T05:42:52.512Z,6.30
2023-04-18T05:45:21.817Z,6.35
2023-04-18T05:47:49.795Z,6.33
2023-04-18T05:50:17.695Z,6.27
2023-04-18T05:52:45.570Z,6.28
2023-04-18T05:55:13.811Z,6.20
2023-04-18T05:57:41.686Z,6.28
2023-04-18T06:00:11.544Z,6.26
2023-04-18T06:02:40.952Z,6.33
2023-04-18T06:05:10.033Z,6.36
2023-04-18T06:07:38.139Z,6.38
2023-04-18T06:10:09.215Z,6.48
2023-04-18T06:12:37.192Z,6.72
2023-04-18T06:15:05.950Z,6.99
2023-04-18T06:17:34.310Z,7.32
2023-04-18T06:20:06.239Z,7.56
2023-04-18T06:22:37.360Z,7.83
2023-04-18T06:25:08.792Z,8.24
2023-04-18T06:27:36.854Z,8.45
2023-04-18T06:30:05.767Z,9.49
2023-04-18T06:32:33.672Z,10.43
2023-04-18T06:35:03.037Z,10.90
2023-04-18T06:37:31.092Z,11.05
2023-04-18T06:39:58.947Z,10.23
2023-04-18T06:42:27.168Z,9.86
2023-04-18T06:44:55.025Z,9.53
2023-04-18T06:47:24.029Z,9.39
2023-04-18T06:49:51.842Z,9.47
2023-04-18T06:52:21.150Z,9.81
2023-04-18T06:54:49.164Z,10.25
2023-04-18T06:57:17.326Z,11.09
2023-04-18T06:59:45.309Z,10.79
2023-04-18T07:02:13.302Z,10.86
2023-04-18T07:04:41.675Z,10.27
2023-04-18T07:07:09.605Z,10.10
2023-04-18T07:09:38.868Z,9.95
2023-04-18T07:12:07.143Z,9.80
2023-04-18T07:14:35.145Z,10.13
2023-04-18T07:17:03.168Z,9.87
2023-04-18T07:19:31.051Z,9.78
2023-04-18T07:21:58.848Z,9.71
2023-04-18T07:24:26.634Z,9.60
2023-04-18T07:26:55.976Z,9.46
2023-04-18T07:29:23.951Z,9.43
2023-04-18T07:31:52.201Z,9.93
2023-04-18T07:34:20.016Z,9.81
2023-04-18T07:36:47.957Z,9.75
2023-04-18T07:39:15.777Z,9.73
2023-04-18T07:41:43.721Z,9.77
2023-04-18T07:44:13.335Z,10.30
2023-04-18T07:46:41.567Z,11.27
2023-04-18T07:49:09.628Z,11.85
2023-04-18T07:51:37.532Z,12.94
2023-04-18T07:54:05.596Z,12.82
2023-04-18T07:56:33.428Z,12.80
2023-04-18T07:59:01.752Z,12.59
2023-04-18T08:01:31.640Z,12.39
2023-04-18T08:04:02.083Z,12.39
2023-04-18T08:06:30.660Z,12.46
2023-04-18T08:09:01.157Z,12.55
2023-04-18T08:11:28.927Z,11.82
2023-04-18T08:13:56.707Z,12.05
2023-04-18T08:16:24.601Z,12.23
2023-04-18T08:18:53.982Z,11.44
2023-04-18T08:21:21.799Z,10.97
2023-04-18T08:23:49.707Z,10.87
2023-04-18T08:26:17.660Z,10.88
2023-04-18T08:28:46.657Z,11.50
2023-04-18T08:31:15.275Z,11.64
2023-04-18T08:33:43.343Z,11.58
2023-04-18T08:36:13.344Z,11.51
2023-04-18T08:38:41.243Z,11.09
2023-04-18T08:41:10.437Z,10.94
2023-04-18T08:43:39.013Z,10.93
2023-04-18T08:46:07.953Z,11.34
2023-04-18T08:48:36.804Z,11.53
2023-04-18T08:51:05.638Z,11.35
2023-04-18T08:53:35.268Z,11.29
2023-04-18T08:56:05.730Z,11.29
2023-04-18T08:58:34.815Z,11.32
2023-04-18T09:01:03.263Z,11.78
2023-04-18T09:03:42.213Z,12.34
2023-04-18T09:06:13.726Z,12.25
2023-04-18T09:08:44.684Z,12.28
2023-04-18T09:11:22.957Z,12.46
2023-04-18T09:13:50.795Z,12.51
2023-04-18T09:16:19.480Z,12.17
2023-04-18T09:19:18.460Z,11.65
2023-04-18T09:21:48.868Z,11.27
2023-04-18T09:24:21.058Z,11.20
2023-04-18T09:26:51.316Z,10.95
2023-04-18T09:29:22.523Z,11.18
2023-04-18T09:31:59.919Z,11.04
2023-04-18T09:34:28.557Z,10.82
2023-04-18T09:37:08.053Z,10.64
2023-04-18T09:39:39.007Z,10.57
2023-04-18T09:42:07.901Z,10.42
2023-04-18T09:44:35.837Z,10.31
2023-04-18T09:47:03.697Z,10.45
2023-04-18T09:49:31.475Z,10.46
2023-04-18T09:52:00.558Z,10.40
2023-04-18T09:54:32.186Z,10.48
2023-04-18T09:57:04.479Z,10.65
2023-04-18T09:59:42.681Z,10.75
2023-04-18T10:02:19.667Z,10.84
2023-04-18T10:04:48.522Z,10.70
2023-04-18T10:07:17.850Z,10.86
2023-04-18T10:09:47.943Z,10.89
2023-04-18T10:12:19.063Z,11.04
2023-04-18T10:14:47.386Z,11.40
2023-04-18T10:17:16.178Z,11.72
2023-04-18T10:19:46.017Z,11.54
2023-04-18T10:22:14.337Z,11.69
2023-04-18T10:24:53.731Z,11.68
2023-04-18T10:27:58.873Z,11.52
2023-04-18T10:30:53.028Z,11.85
2023-04-18T10:33:42.365Z,12.24
2023-04-18T10:36:19.874Z,12.62
2023-04-18T10:38:50.008Z,12.17
2023-04-18T10:41:26.381Z,12.24
2023-04-18T10:44:15.827Z,12.31
2023-04-18T10:47:05.024Z,12.25
2023-04-18T10:49:35.618Z,12.19
2023-04-18T10:52:05.952Z,12.38
2023-04-18T10:54:43.039Z,12.57
2023-04-18T10:57:11.984Z,12.69
2023-04-18T10:59:43.924Z,12.62
2023-04-18T11:02:24.258Z,12.42
2023-04-18T11:04:53.332Z,12.65
2023-04-18T11:07:21.823Z,12.54
2023-04-18T11:09:54.003Z,12.65
2023-04-18T11:12:21.868Z,12.70
2023-04-18T11:14:52.530Z,12.64
2023-04-18T11:17:22.012Z,12.95
2023-04-18T11:19:49.989Z,12.87
2023-04-18T11:22:18.836Z,12.74
2023-04-18T11:24:46.623Z,13.22
2023-04-18T11:27:16.080Z,13.05
2023-04-18T11:29:43.965Z,13.39
2023-04-18T11:32:13.201Z,13.42
2023-04-18T11:34:41.041Z,13.45
2023-04-18T11:37:08.875Z,13.49
2023-04-18T11:39:41.983Z,13.62
2023-04-18T11:42:10.131Z,13.64
2023-04-18T11:44:39.893Z,13.56
2023-04-18T11:47:24.853Z,13.70
2023-04-18T11:50:00.130Z,13.73
2023-04-18T11:52:29.353Z,13.36
2023-04-18T11:54:57.894Z,13.31
2023-04-18T11:57:26.952Z,13.41
2023-04-18T11:59:57.445Z,13.22
2023-04-18T12:02:40.222Z,13.45
2023-04-18T12:05:09.274Z,13.56
2023-04-18T12:07:39.996Z,13.83
2023-04-18T12:10:10.994Z,13.80
2023-04-18T12:12:38.980Z,13.87
2023-04-18T12:15:08.903Z,13.80
2023-04-18T12:17:39.341Z,13.98
2023-04-18T12:20:10.032Z,13.78
2023-04-18T12:22:42.931Z,13.91
2023-04-18T12:25:27.711Z,13.91
2023-04-18T12:27:59.091Z,13.96
2023-04-18T12:30:29.186Z,13.87
2023-04-18T12:32:59.939Z,14.11
2023-04-18T12:35:28.464Z,14.13
2023-04-18T12:37:57.217Z,14.22
2023-04-18T12:40:26.394Z,14.35
2023-04-18T12:42:55.521Z,14.08
2023-04-18T12:45:24.939Z,14.27
2023-04-18T12:47:53.799Z,14.10
2023-04-18T12:50:25.006Z,14.07
2023-04-18T12:52:53.871Z,14.22
2023-04-18T12:55:22.672Z,14.05
2023-04-18T12:57:54.248Z,14.21
2023-04-18T13:00:23.493Z,14.16
2023-04-18T13:02:52.444Z,14.19
2023-04-18T13:05:23.501Z,14.22
2023-04-18T13:07:58.732Z,14.34
2023-04-18T13:10:33.421Z,14.46
2023-04-18T13:13:01.230Z,14.35
2023-04-18T13:15:28.899Z,14.46
2023-04-18T13:17:57.521Z,14.19
2023-04-18T13:20:26.986Z,14.29
2023-04-18T13:22:55.285Z,14.36
2023-04-18T13:25:23.347Z,14.18
2023-04-18T13:27:51.153Z,14.50
2023-04-18T13:30:19.387Z,14.46
2023-04-18T13:32:47.323Z,14.55
2023-04-18T13:35:15.133Z,14.46
2023-04-18T13:37:44.292Z,14.38
2023-04-18T13:40:13.152Z,14.39
2023-04-18T13:42:41.028Z,14.45
2023-04-18T13:45:09.441Z,14.43
2023-04-18T13:47:37.547Z,14.36
2023-04-18T13:50:06.006Z,14.30
2023-04-18T13:52:34.174Z,14.27
2023-04-18T13:55:03.695Z,14.20
2023-04-18T13:57:33.315Z,14.27
2023-04-18T14:00:01.084Z,14.34
2023-04-18T14:02:29.172Z,14.45
2023-04-18T14:04:58.276Z,14.64
2023-04-18T14:07:26.285Z,14.62
2023-04-18T14:09:54.220Z,14.59
2023-04-18T14:12:23.310Z,14.63
2023-04-18T14:14:51.060Z,14.52
2023-04-18T14:17:18.884Z,14.57
2023-04-18T14:19:46.649Z,14.48
2023-04-18T14:22:14.407Z,14.34
2023-04-18T14:24:42.155Z,14.34
2023-04-18T14:27:09.947Z,14.29
2023-04-18T14:29:39.166Z,14.35
2023-04-18T14:32:07.897Z,14.21
2023-04-18T14:34:36.773Z,14.36
2023-04-18T14:37:06.286Z,14.33
2023-04-18T14:39:34.121Z,14.35
2023-04-18T14:42:01.997Z,14.36
2023-04-18T14:44:31.405Z,14.40
2023-04-18T14:47:01.402Z,14.40
2023-04-18T14:49:29.443Z,14.40
2023-04-18T14:51:57.209Z,14.37
2023-04-18T14:54:25.063Z,14.29
2023-04-18T14:56:52.853Z,14.39
2023-04-18T14:59:20.841Z,14.46
2023-04-18T15:01:48.835Z,14.48
2023-04-18T15:04:18.284Z,14.59
2023-04-18T15:06:46.626Z,14.60
2023-04-18T15:09:15.450Z,14.61
2023-04-18T15:11:43.290Z,14.52
2023-04-18T15:14:11.095Z,14.53
2023-04-18T15:16:40.759Z,14.55
2023-04-18T15:19:08.720Z,14.63
2023-04-18T15:21:37.824Z,14.43
2023-04-18T15:24:05.832Z,14.42
2023-04-18T15:26:33.580Z,14.42
2023-04-18T15:29:03.682Z,14.34
2023-04-18T15:31:31.606Z,14.21
2023-04-18T15:33:59.568Z,14.05
2023-04-18T15:36:28.039Z,13.93
2023-04-18T15:38:57.288Z,13.88
2023-04-18T15:41:25.645Z,14.00
2023-04-18T15:43:53.704Z,13.99
2023-04-18T15:46:22.055Z,13.91
2023-04-18T15:48:49.873Z,13.87
2023-04-18T15:51:17.862Z,13.79
2023-04-18T15:53:45.637Z,13.70
2023-04-18T15:56:14.958Z,13.60
2023-04-18T15:58:43.027Z,13.55
2023-04-18T16:01:15.771Z,13.48
2023-04-18T16:03:43.911Z,13.43
2023-04-18T16:06:12.058Z,13.36
2023-04-18T16:08:39.838Z,13.36
2023-04-18T16:11:08.271Z,13.41
2023-04-18T16:13:38.405Z,13.33
2023-04-18T16:16:07.197Z,13.32
2023-04-18T16:18:35.090Z,13.21
2023-04-18T16:21:03.141Z,13.18
2023-04-18T16:23:32.091Z,13.16
2023-04-18T16:25:59.825Z,13.11
2023-04-18T16:28:27.794Z,13.11
2023-04-18T16:30:59.995Z,13.07
2023-04-18T16:33:27.898Z,13.05
2023-04-18T16:35:58.726Z,12.96
2023-04-18T16:38:29.263Z,12.79
2023-04-18T16:40:57.668Z,12.58
2023-04-18T16:43:27.692Z,12.46
2023-04-18T16:45:57.475Z,12.36
2023-04-18T16:48:25.445Z,12.31
2023-04-18T16:50:53.389Z,12.23
2023-04-18T16:53:21.554Z,12.18
2023-04-18T16:55:50.362Z,12.03
2023-04-18T16:58:18.346Z,11.94
2023-04-18T17:00:46.280Z,11.82
2023-04-18T17:03:15.639Z,11.76
2023-04-18T17:05:43.548Z,11.68
2023-04-18T17:08:11.408Z,11.61
2023-04-18T17:10:39.304Z,11.57
2023-04-18T17:13:07.228Z,11.54
2023-04-18T17:15:35.994Z,11.46
2023-04-18T17:18:03.847Z,11.42
2023-04-18T17:20:33.104Z,11.35
2023-04-18T17:23:01.024Z,11.32
2023-04-18T17:25:29.356Z,11.23
2023-04-18T17:27:57.274Z,11.18
2023-04-18T17:30:25.144Z,11.10
2023-04-18T17:32:52.958Z,11.06
2023-04-18T17:35:21.031Z,11.01
2023-04-18T17:37:50.760Z,10.94
2023-04-18T17:40:18.443Z,10.92
2023-04-18T17:42:46.432Z,10.84
2023-04-18T17:45:14.208Z,10.80
2023-04-18T17:47:42.489Z,10.72
2023-04-18T17:50:11.231Z,10.68
2023-04-18T17:52:39.518Z,10.65
2023-04-18T17:55:09.701Z,10.58
2023-04-18T17:57:37.545Z,10.56
2023-04-18T18:00:10.471Z,10.48
2023-04-18T18:02:38.726Z,10.51
2023-04-18T18:05:08.858Z,10.45
2023-04-18T18:07:38.298Z,10.43
2023-04-18T18:10:09.969Z,10.39
2023-04-18T18:12:38.151Z,10.36
2023-04-18T18:15:07.346Z,10.35
2023-04-18T18:17:35.293Z,10.34
2023-04-18T18:20:03.552Z,10.25
2023-04-18T18:22:31.618Z,10.15
2023-04-18T18:24:59.487Z,10.09
2023-04-18T18:27:28.620Z,9.97
2023-04-18T18:29:56.427Z,9.93
2023-04-18T18:32:24.330Z,9.89
2023-04-18T18:34:54.185Z,9.81
2023-04-18T18:37:23.239Z,9.75
2023-04-18T18:39:51.050Z,9.64
2023-04-18T18:42:18.796Z,9.55
2023-04-18T18:44:48.041Z,9.49
2023-04-18T18:47:15.827Z,9.46
2023-04-18T18:49:43.525Z,9.42
2023-04-18T18:52:11.333Z,9.36
2023-04-18T18:54:39.028Z,9.27
2023-04-18T18:57:07.031Z,9.19
2023-04-18T18:59:34.794Z,9.13
2023-04-18T19:02:04.155Z,9.10
2023-04-18T19:04:32.582Z,9.08
2023-04-18T19:07:00.486Z,9.04
2023-04-18T19:09:28.369Z,9.02
2023-04-18T19:11:57.037Z,8.94
2023-04-18T19:14:25.014Z,8.82
2023-04-18T19:16:53.198Z,8.81
2023-04-18T19:19:22.516Z,8.71
2023-04-18T19:21:50.347Z,8.68
2023-04-18T19:24:18.901Z,8.54
2023-04-18T19:26:46.742Z,8.52
2023-04-18T19:29:14.832Z,8.40
2023-04-18T19:31:43.622Z,8.32
2023-04-18T19:34:11.851Z,8.23
2023-04-18T19:36:43.843Z,8.17
2023-04-18T19:39:13.781Z,8.09
2023-04-18T19:41:42.495Z,8.11
2023-04-18T19:44:10.494Z,8.01
2023-04-18T19:46:38.441Z,7.88
2023-04-18T19:49:06.300Z,7.80
2023-04-18T19:51:34.182Z,7.80
2023-04-18T19:54:03.276Z,7.76
2023-04-18T19:56:32.950Z,7.77
2023-04-18T19:59:01.695Z,7.77
2023-04-18T20:01:29.594Z,7.70
2023-04-18T20:04:00.037Z,7.66
2023-04-18T20:06:28.635Z,7.62
2023-04-18T20:08:56.616Z,7.57
2023-04-18T20:11:25.925Z,7.55
2023-04-18T20:13:55.711Z,7.46
2023-04-18T20:16:23.640Z,7.45
2023-04-18T20:18:54.956Z,7.41
2023-04-18T20:21:23.210Z,7.32
2023-04-18T20:23:51.170Z,7.31
2023-04-18T20:26:19.520Z,7.21
2023-04-18T20:28:48.697Z,7.12
2023-04-18T20:31:16.635Z,7.05
2023-04-18T20:33:44.559Z,6.98
2023-04-18T20:36:14.043Z,6.95
2023-04-18T20:38:41.802Z,6.92
2023-04-18T20:41:10.703Z,6.92
2023-04-18T20:43:39.868Z,6.83
2023-04-18T20:46:12.661Z,6.81
2023-04-18T20:48:40.566Z,6.81
2023-04-18T20:51:08.453Z,6.81
2023-04-18T20:53:36.240Z,6.77
2023-04-18T20:56:04.140Z,6.66
2023-04-18T20:58:34.993Z,6.61
2023-04-18T21:01:02.904Z,6.60
2023-04-18T21:03:32.367Z,6.58
2023-04-18T21:06:00.310Z,6.49
2023-04-18T21:08:28.145Z,6.48
2023-04-18T21:10:55.972Z,6.39
2023-04-18T21:13:24.005Z,6.49
2023-04-18T21:15:52.014Z,6.44
2023-04-18T21:18:19.972Z,6.47
2023-04-18T21:20:49.153Z,6.38
2023-04-18T21:23:16.957Z,6.26
2023-04-18T21:25:44.843Z,6.26
2023-04-18T21:28:12.923Z,6.23
2023-04-18T21:30:40.837Z,6.19
2023-04-18T21:33:08.595Z,6.14
2023-04-18T21:35:36.419Z,6.07
2023-04-18T21:38:05.631Z,6.04
2023-04-18T21:40:33.459Z,6.12
2023-04-18T21:43:01.213Z,6.01
2023-04-18T21:45:28.981Z,5.95
2023-04-18T21:47:56.775Z,5.96
2023-04-18T21:50:24.735Z,5.94
2023-04-18T21:52:52.532Z,5.88
2023-04-18T21:55:21.692Z,5.78
2023-04-18T21:57:49.490Z,5.76
2023-04-18T22:00:17.844Z,5.82
2023-04-18T22:02:46.168Z,5.82
2023-04-18T22:05:13.995Z,5.81
2023-04-18T22:07:54.420Z,5.77
2023-04-18T22:10:26.915Z,5.73
2023-04-18T22:12:55.002Z,5.72
2023-04-18T22:15:22.828Z,5.69
2023-04-18T22:17:50.664Z,5.66
2023-04-18T22:20:18.574Z,5.65
2023-04-18T22:22:46.536Z,5.63
2023-04-18T22:25:14.467Z,5.59
2023-04-18T22:27:46.444Z,5.65
2023-04-18T22:30:15.437Z,5.77
2023-04-18T22:32:43.217Z,5.73
2023-04-18T22:35:11.307Z,5.65
2023-04-18T22:37:39.260Z,5.67
2023-04-18T22:40:08.942Z,5.73
2023-04-18T22:42:38.613Z,5.74
2023-04-18T22:45:09.196Z,5.73
2023-04-18T22:47:37.002Z,5.77
2023-04-18T22:50:05.358Z,5.79
2023-04-18T22:52:33.134Z,5.86
2023-04-18T22:55:02.297Z,5.91
2023-04-18T22:57:30.066Z,5.88
2023-04-18T22:59:57.978Z,5.93
2023-04-18T23:02:27.595Z,6.03
2023-04-18T23:04:58.412Z,6.01
2023-04-18T23:07:26.382Z,6.05
2023-04-18T23:09:54.475Z,6.10
2023-04-18T23:12:22.336Z,6.08
2023-04-18T23:14:50.138Z,6.01
2023-04-18T23:17:18.019Z,6.02
2023-04-18T23:19:47.226Z,5.99
2023-04-18T23:22:15.196Z,6.08
2023-04-18T23:24:43.146Z,6.10
2023-04-18T23:27:11.029Z,6.08
2023-04-18T23:29:40.068Z,6.06
2023-04-18T23:32:08.250Z,6.03
2023-04-18T23:34:36.192Z,6.07
2023-04-18T23:37:05.425Z,6.02
2023-04-18T23:39:33.342Z,5.97
2023-04-18T23:42:01.282Z,5.99
2023-04-18T23:44:29.071Z,5.97
2023-04-18T23:46:56.937Z,5.94
2023-04-18T23:49:25.303Z,5.91
2023-04-18T23:51:53.204Z,5.82
2023-04-18T23:54:22.470Z,5.72
2023-04-18T23:56:50.402Z,5.67
2023-04-18T23:59:18.330Z,5.56
